Time;durP1;ratioP1;P1;durP2;ratioP2;P2;SDS_P1;SDS_P2;PMS_P1;PMS_P2;Temp;Humidity;BMP_temperature;BMP_pressure;BME280_temperature;BME280_humidity;BME280_pressure;Samples;Min_cycle;Max_cycle;Signal;HPM_P1;HPM_P2
2021/03/23 00:03:46;;;;;;;0.87;0.53;;;18.80;42.10;;;;;;10481921;28;20216;-25
2021/03/23 00:09:08;;;;;;;2.20;0.77;;;18.80;42.20;;;;;;10500616;28;20202;-24
2021/03/23 00:14:31;;;;;;;2.33;0.60;;;18.70;42.10;;;;;;10499775;28;20220;-24
2021/03/23 00:19:53;;;;;;;2.33;0.70;;;18.80;42.20;;;;;;10499974;28;20687;-24
2021/03/23 00:25:15;;;;;;;1.57;0.50;;;18.70;42.20;;;;;;10499254;28;20220;-24
2021/03/23 00:30:37;;;;;;;0.67;0.57;;;18.70;42.20;;;;;;10499634;28;20193;-24
2021/03/23 00:36:02;;;;;;;2.47;0.93;;;18.70;42.30;;;;;;10499087;28;20208;-24
2021/03/23 00:41:24;;;;;;;1.30;0.60;;;18.70;42.40;;;;;;10493267;28;20189;-24
2021/03/23 00:46:47;;;;;;;1.27;0.60;;;18.60;42.50;;;;;;10458360;28;20700;-23
2021/03/23 00:52:09;;;;;;;2.07;0.63;;;18.60;42.50;;;;;;10458579;28;20232;-24
2021/03/23 00:57:30;;;;;;;1.47;0.67;;;18.60;42.50;;;;;;10456674;28;20189;-24
2021/03/23 01:02:53;;;;;;;0.97;0.47;;;18.60;42.30;;;;;;10472811;28;20227;-25
2021/03/23 01:08:14;;;;;;;3.43;0.60;;;18.60;42.30;;;;;;10497832;28;20199;-26
2021/03/23 01:13:36;;;;;;;1.47;0.67;;;18.60;42.30;;;;;;10497651;28;20242;-25
2021/03/23 01:19:00;;;;;;;1.93;0.50;;;18.60;42.40;;;;;;10497321;28;20200;-24
2021/03/23 01:24:21;;;;;;;2.53;0.50;;;18.50;42.50;;;;;;10491699;28;20793;-25
2021/03/23 01:29:43;;;;;;;1.60;0.43;;;18.50;42.60;;;;;;10494781;28;20192;-24
2021/03/23 01:35:07;;;;;;;1.60;0.50;;;18.50;42.80;;;;;;10496709;28;20283;-25
2021/03/23 01:40:29;;;;;;;1.63;0.37;;;18.40;42.70;;;;;;10488562;28;20260;-24
2021/03/23 01:45:51;;;;;;;1.27;0.50;;;18.50;42.60;;;;;;10474767;28;20224;-25
2021/03/23 01:51:16;;;;;;;1.50;0.70;;;18.50;42.70;;;;;;10496751;28;20211;-24
2021/03/23 01:56:38;;;;;;;0.93;0.40;;;18.50;42.80;;;;;;10497666;28;20200;-24
2021/03/23 02:02:02;;;;;;;1.73;0.60;;;18.40;42.80;;;;;;10495916;28;20274;-25
2021/03/23 02:07:25;;;;;;;2.40;0.70;;;18.40;42.80;;;;;;10496454;28;20591;-25
2021/03/23 02:12:47;;;;;;;1.03;0.50;;;18.40;43.00;;;;;;10495841;28;20227;-23
2021/03/23 02:18:13;;;;;;;0.97;0.57;;;18.40;43.00;;;;;;10494294;28;20207;-24
2021/03/23 02:23:37;;;;;;;2.20;0.90;;;18.40;42.90;;;;;;10493951;28;20213;-24
2021/03/23 02:29:01;;;;;;;2.20;0.50;;;18.40;42.90;;;;;;10495018;28;20557;-24
2021/03/23 02:34:24;;;;;;;1.27;0.60;;;18.40;43.00;;;;;;10495118;28;20215;-24
2021/03/23 02:39:46;;;;;;;0.53;0.47;;;18.40;43.00;;;;;;10494684;28;20279;-21
2021/03/23 02:45:09;;;;;;;1.30;0.60;;;18.40;43.10;;;;;;10458166;28;20738;-24
2021/03/23 02:50:31;;;;;;;1.70;0.80;;;18.40;43.00;;;;;;10453163;28;20619;-24
2021/03/23 02:55:53;;;;;;;2.60;0.63;;;18.40;42.90;;;;;;10452776;28;20907;-24
2021/03/23 03:01:16;;;;;;;2.33;0.70;;;18.40;43.00;;;;;;10454992;28;20251;-24
2021/03/23 03:06:38;;;;;;;3.13;0.60;;;18.40;43.00;;;;;;10492471;28;20208;-24
2021/03/23 03:12:00;;;;;;;2.17;0.73;;;18.40;42.90;;;;;;10492289;28;20212;-22
2021/03/23 03:17:22;;;;;;;0.90;0.43;;;18.30;42.80;;;;;;10492782;28;20188;-21
2021/03/23 03:22:43;;;;;;;0.97;0.50;;;18.30;43.00;;;;;;10492693;28;20212;-24
2021/03/23 03:28:07;;;;;;;0.93;0.50;;;18.30;42.90;;;;;;10493002;28;20610;-24
2021/03/23 03:33:29;;;;;;;0.93;0.63;;;18.30;43.10;;;;;;10492550;28;20303;-24
2021/03/23 03:38:51;;;;;;;1.50;0.83;;;18.20;43.10;;;;;;10491700;28;20196;-24
2021/03/23 03:44:14;;;;;;;1.47;0.77;;;18.20;43.10;;;;;;10463071;28;20216;-24
2021/03/23 03:49:35;;;;;;;1.40;0.70;;;18.30;43.00;;;;;;10485520;28;20204;-24
2021/03/23 03:54:57;;;;;;;1.83;0.83;;;18.30;42.80;;;;;;10492750;28;20224;-24
2021/03/23 04:00:22;;;;;;;2.03;1.00;;;18.30;42.80;;;;;;10491856;28;20196;-25
2021/03/23 04:05:45;;;;;;;2.27;0.90;;;18.30;42.90;;;;;;10492082;28;20220;-24
2021/03/23 04:11:08;;;;;;;2.47;1.17;;;18.20;42.90;;;;;;10490592;28;20256;-24
2021/03/23 04:16:31;;;;;;;2.37;1.00;;;18.30;42.70;;;;;;10491567;28;20213;-23
2021/03/23 04:21:53;;;;;;;3.13;0.90;;;18.30;42.70;;;;;;10491795;28;20251;-23
2021/03/23 04:27:14;;;;;;;2.27;0.90;;;18.20;42.80;;;;;;10491598;28;20219;-24
2021/03/23 04:32:38;;;;;;;1.20;0.90;;;18.20;42.90;;;;;;10497673;28;20748;-24
2021/03/23 04:38:00;;;;;;;3.03;1.40;;;18.20;42.90;;;;;;10499043;28;20184;-24
2021/03/23 04:43:25;;;;;;;1.20;0.93;;;18.20;42.90;;;;;;10475955;28;20765;-21
2021/03/23 04:48:48;;;;;;;2.43;1.00;;;18.20;42.70;;;;;;10457702;28;20216;-24
2021/03/23 04:54:10;;;;;;;2.27;0.87;;;18.30;42.70;;;;;;10458831;23;20233;-20
2021/03/23 04:59:31;;;;;;;2.27;1.23;;;18.30;42.50;;;;;;10413982;28;20205;-21
2021/03/23 05:04:54;;;;;;;3.40;1.10;;;18.30;42.70;;;;;;10414290;28;20222;-22
2021/03/23 05:10:15;;;;;;;1.53;1.00;;;18.30;42.50;;;;;;10415401;28;20201;-23
2021/03/23 05:15:37;;;;;;;1.37;1.10;;;18.30;42.50;;;;;;10415058;28;20218;-23
2021/03/23 05:21:00;;;;;;;1.43;0.83;;;18.30;42.60;;;;;;10414770;28;20304;-23
2021/03/23 05:26:21;;;;;;;2.47;1.17;;;18.30;42.50;;;;;;10414763;28;20244;-20
2021/03/23 05:31:43;;;;;;;2.17;1.07;;;18.30;42.40;;;;;;10414735;28;20549;-23
2021/03/23 05:37:06;;;;;;;2.73;1.33;;;18.30;42.30;;;;;;10414260;28;20218;-24
2021/03/23 05:42:33;;;;;;;1.00;0.90;;;18.30;42.60;;;;;;10413334;28;20592;-23
2021/03/23 05:48:13;;;;;;;2.27;0.93;;;18.40;42.20;;;;;;10414623;28;20213;-23
2021/03/23 05:53:42;;;;;;;2.43;1.10;;;18.30;42.10;;;;;;10408935;28;20217;-23
2021/03/23 05:59:12;;;;;;;3.53;1.33;;;18.30;42.20;;;;;;10406645;28;20611;-25
2021/03/23 06:04:44;;;;;;;2.47;1.30;;;18.30;42.20;;;;;;10402931;28;20230;-21
2021/03/23 06:10:24;;;;;;;3.53;1.70;;;18.40;42.10;;;;;;10403514;28;20198;-23
2021/03/23 06:16:02;;;;;;;4.97;1.30;;;18.40;42.10;;;;;;10399585;28;20589;-22
2021/03/23 06:21:29;;;;;;;2.90;1.07;;;18.40;42.10;;;;;;10377316;28;20201;-23
2021/03/23 06:26:59;;;;;;;2.30;1.17;;;18.30;42.20;;;;;;10370348;28;20226;-22
2021/03/23 06:32:32;;;;;;;1.70;1.30;;;18.30;42.10;;;;;;10369970;28;20225;-24
2021/03/23 06:37:54;;;;;;;1.53;1.17;;;18.40;41.90;;;;;;10370425;28;20190;-21
2021/03/23 06:43:27;;;;;;;1.67;1.40;;;18.40;41.90;;;;;;10391177;28;20222;-22
2021/03/23 06:49:04;;;;;;;3.13;1.37;;;18.40;41.90;;;;;;10391895;28;20199;-22
2021/03/23 06:54:28;;;;;;;3.00;1.80;;;18.40;41.80;;;;;;10379718;28;20244;-22
2021/03/23 06:59:58;;;;;;;4.63;3.20;;;18.30;41.60;;;;;;10429684;28;20201;-23
2021/03/23 07:05:31;;;;;;;7.20;3.27;;;17.90;41.30;;;;;;10404364;28;20233;-20
2021/03/23 07:11:07;;;;;;;5.33;2.80;;;17.90;42.00;;;;;;10426577;28;20189;-22
2021/03/23 07:16:31;;;;;;;4.03;2.53;;;18.10;42.40;;;;;;10451747;28;20217;-24
2021/03/23 07:22:01;;;;;;;5.40;2.60;;;18.20;42.10;;;;;;10399253;28;20205;-24
2021/03/23 07:27:25;;;;;;;3.33;2.23;;;18.50;41.70;;;;;;10412609;28;20220;-23
2021/03/23 07:32:53;;;;;;;3.70;2.50;;;18.70;41.40;;;;;;10430713;28;20221;-24
2021/03/23 07:38:23;;;;;;;3.07;1.80;;;18.80;40.90;;;;;;10397811;28;20621;-24
2021/03/23 07:43:49;;;;;;;2.80;2.00;;;18.70;40.70;;;;;;10387363;28;20217;-23
2021/03/23 07:49:30;;;;;;;3.27;1.53;;;18.60;40.80;;;;;;10403401;28;20193;-24
2021/03/23 07:54:52;;;;;;;2.60;1.63;;;18.70;40.90;;;;;;10443390;28;20228;-23
2021/03/23 08:00:22;;;;;;;3.03;1.50;;;18.80;41.20;;;;;;10422388;28;20209;-23
2021/03/23 08:05:52;;;;;;;3.33;1.30;;;18.80;41.10;;;;;;10406694;28;20704;-23
2021/03/23 08:11:31;;;;;;;2.70;1.33;;;19.50;41.00;;;;;;10411215;28;20635;-23
2021/03/23 08:17:12;;;;;;;4.37;1.10;;;20.10;40.20;;;;;;10411905;28;20964;-24
2021/03/23 08:22:50;;;;;;;1.43;0.83;;;20.60;39.60;;;;;;10412041;28;20206;-23
2021/03/23 08:28:28;;;;;;;1.70;1.00;;;20.90;39.00;;;;;;10412106;28;20279;-23
2021/03/23 08:34:02;;;;;;;6.57;1.27;;;21.30;38.80;;;;;;10411302;28;20213;-22
2021/03/23 08:39:35;;;;;;;1.73;1.00;;;21.50;38.30;;;;;;10410850;28;20201;-22
2021/03/23 08:45:00;;;;;;;1.50;0.83;;;21.70;37.90;;;;;;10410871;28;20305;-19
2021/03/23 08:50:27;;;;;;;2.07;1.10;;;21.80;37.70;;;;;;10414062;28;20201;-22
2021/03/23 08:55:50;;;;;;;2.30;1.30;;;21.80;37.50;;;;;;10412787;28;20280;-23
2021/03/23 09:01:39;;;;;;;2.37;1.20;;;21.90;37.50;;;;;;10412122;28;20201;-21
2021/03/23 09:07:18;;;;;;;2.97;1.20;;;22.10;37.30;;;;;;10449678;28;20639;-21
2021/03/23 09:12:43;;;;;;;3.93;1.50;;;22.20;37.20;;;;;;10412113;28;20255;-23
2021/03/23 09:18:25;;;;;;;2.47;1.27;;;22.30;37.10;;;;;;10402943;28;20553;-23
2021/03/23 09:23:51;;;;;;;3.37;1.47;;;22.40;36.90;;;;;;10402375;28;20715;-23
2021/03/23 09:29:40;;;;;;;1.53;1.20;;;22.50;36.80;;;;;;10408529;28;20198;-21
2021/03/23 09:35:14;;;;;;;2.43;1.20;;;22.50;36.70;;;;;;10414601;28;20669;-22
2021/03/23 09:40:50;;;;;;;3.17;1.40;;;22.60;36.70;;;;;;10413976;28;20198;-24
2021/03/23 09:46:36;;;;;;;5.27;3.03;;;22.60;36.70;;;;;;10374620;28;20210;-23
2021/03/23 09:52:12;;;;;;;4.83;2.83;;;21.50;35.80;;;;;;10387880;28;20554;-23
2021/03/23 09:57:33;;;;;;;5.50;2.37;;;21.10;36.70;;;;;;10404162;28;20214;-23
2021/03/23 10:02:56;;;;;;;5.63;3.03;;;20.90;37.30;;;;;;10405687;28;20218;-20
2021/03/23 10:08:19;;;;;;;6.77;3.17;;;20.80;37.70;;;;;;10406996;28;20245;-22
2021/03/23 10:13:48;;;;;;;5.13;2.87;;;20.50;38.00;;;;;;10399455;28;20842;-25
2021/03/23 10:19:19;;;;;;;5.87;2.97;;;20.10;38.70;;;;;;10395737;28;20276;-24
2021/03/23 10:24:43;;;;;;;6.90;3.63;;;19.80;39.10;;;;;;10391496;28;20226;-23
2021/03/23 10:30:10;;;;;;;7.37;3.17;;;19.70;39.40;;;;;;10370134;28;20214;-19
2021/03/23 10:35:54;;;;;;;4.87;3.40;;;19.90;39.40;;;;;;10390484;28;20220;-22
2021/03/23 10:41:35;;;;;;;4.50;3.50;;;20.20;38.80;;;;;;10411414;28;20731;-24
2021/03/23 10:46:58;;;;;;;6.20;3.80;;;20.30;38.60;;;;;;10409960;28;20221;-21
2021/03/23 10:52:31;;;;;;;5.60;3.67;;;20.50;38.50;;;;;;10414610;28;20208;-19
2021/03/23 10:58:14;;;;;;;6.37;3.93;;;20.50;38.50;;;;;;10410755;28;20194;-22
2021/03/23 11:03:40;;;;;;;6.07;4.00;;;20.50;38.70;;;;;;10376750;28;20223;-19
2021/03/23 11:09:07;;;;;;;5.97;3.93;;;20.50;38.60;;;;;;10410220;28;20223;-21
2021/03/23 11:14:28;;;;;;;8.70;4.40;;;20.60;38.40;;;;;;10381806;28;20664;-21
2021/03/23 11:19:51;;;;;;;6.20;4.37;;;20.60;38.40;;;;;;10369151;28;20199;-22
2021/03/23 11:25:18;;;;;;;5.80;4.00;;;20.60;38.50;;;;;;10368970;28;20287;-22
2021/03/23 11:30:40;;;;;;;9.57;4.90;;;20.50;38.60;;;;;;10368028;28;20199;-22
2021/03/23 11:36:03;;;;;;;6.87;4.63;;;20.60;38.50;;;;;;10369352;28;20214;-22
2021/03/23 11:41:30;;;;;;;7.53;4.50;;;20.60;38.50;;;;;;10366489;28;20208;-22
2021/03/23 11:46:58;;;;;;;7.40;4.20;;;20.50;38.60;;;;;;10391605;28;20681;-23
2021/03/23 11:52:20;;;;;;;5.60;4.37;;;20.50;38.60;;;;;;10408812;28;20200;-22
2021/03/23 11:57:44;;;;;;;6.97;4.13;;;20.50;38.60;;;;;;10405284;28;20194;-20
2021/03/23 12:03:09;;;;;;;8.40;4.57;;;20.60;38.70;;;;;;10392679;28;20237;-20
2021/03/23 12:08:36;;;;;;;6.00;4.40;;;20.60;38.70;;;;;;10368380;28;20245;-20
2021/03/23 12:14:09;;;;;;;7.90;4.87;;;20.60;38.70;;;;;;10406842;28;20217;-20
2021/03/23 12:19:34;;;;;;;6.90;4.90;;;20.10;39.00;;;;;;10368198;28;20654;-21
2021/03/23 12:24:56;;;;;;;7.87;5.10;;;19.80;39.60;;;;;;10367296;28;20227;-22
2021/03/23 12:30:22;;;;;;;6.83;4.90;;;19.60;40.10;;;;;;10366956;28;20260;-23
2021/03/23 12:35:44;;;;;;;9.83;4.90;;;19.50;40.40;;;;;;10367239;28;20234;-22
2021/03/23 12:41:05;;;;;;;5.73;4.87;;;19.50;40.50;;;;;;10371230;28;20198;-22
2021/03/23 12:46:29;;;;;;;8.40;5.73;;;19.50;40.30;;;;;;10408059;28;20228;-21
2021/03/23 12:51:57;;;;;;;7.57;5.20;;;19.40;40.50;;;;;;10413866;28;20674;-21
2021/03/23 12:57:21;;;;;;;7.33;4.77;;;19.30;40.50;;;;;;10415480;28;20219;-24
2021/03/23 13:02:44;;;;;;;8.20;5.10;;;19.30;40.70;;;;;;10414162;28;20702;-24
2021/03/23 13:08:14;;;;;;;9.27;4.50;;;19.30;41.00;;;;;;10414461;28;20230;-25
2021/03/23 13:13:47;;;;;;;8.03;5.20;;;19.20;41.00;;;;;;10413414;28;20225;-24
2021/03/23 13:19:11;;;;;;;7.17;4.27;;;19.20;41.00;;;;;;10374567;28;20187;-22
2021/03/23 13:24:37;;;;;;;7.97;4.20;;;19.60;41.00;;;;;;10385301;28;20708;-21
2021/03/23 13:30:01;;;;;;;11.90;4.23;;;19.90;40.60;;;;;;10398268;28;20245;-23
2021/03/23 13:35:25;;;;;;;8.50;5.60;;;20.10;40.20;;;;;;10374348;28;20217;-22
2021/03/23 13:40:49;;;;;;;11.27;4.80;;;20.20;40.10;;;;;;10380783;28;20582;-22
2021/03/23 13:46:23;;;;;;;10.33;5.53;;;20.20;40.10;;;;;;10409922;28;20228;-20
2021/03/23 13:51:47;;;;;;;10.27;5.10;;;20.20;40.20;;;;;;10435943;28;20203;-23
2021/03/23 13:57:10;;;;;;;8.57;4.73;;;20.20;40.40;;;;;;10420123;28;20224;-20
2021/03/23 14:02:31;;;;;;;11.93;5.60;;;20.20;40.50;;;;;;10411329;28;20208;-24
2021/03/23 14:07:56;;;;;;;10.60;5.13;;;20.20;40.50;;;;;;10395516;28;20673;-22
2021/03/23 14:13:19;;;;;;;8.97;5.20;;;20.20;40.40;;;;;;10412589;28;20224;-25
2021/03/23 14:18:41;;;;;;;10.10;4.70;;;20.30;40.20;;;;;;10413070;28;20212;-23
2021/03/23 14:24:04;;;;;;;10.73;5.37;;;20.40;39.90;;;;;;10412537;28;20221;-22
2021/03/23 14:29:25;;;;;;;12.80;5.37;;;20.50;39.80;;;;;;10413317;28;20201;-23
2021/03/23 14:34:47;;;;;;;8.13;5.33;;;20.30;39.80;;;;;;10412507;28;20224;-23
2021/03/23 14:40:17;;;;;;;13.47;5.90;;;20.10;40.40;;;;;;10412342;28;20198;-21
2021/03/23 14:45:40;;;;;;;10.10;6.13;;;20.00;40.90;;;;;;10412454;28;20278;-21
2021/03/23 14:51:01;;;;;;;10.90;6.50;;;19.90;41.50;;;;;;10415358;28;20213;-25
2021/03/23 14:56:27;;;;;;;12.03;6.73;;;19.90;41.30;;;;;;10382242;28;20214;-22
2021/03/23 15:01:49;;;;;;;11.77;6.80;;;19.90;41.40;;;;;;10395076;28;20192;-22
2021/03/23 15:07:24;;;;;;;13.93;8.07;;;19.80;41.10;;;;;;10410820;28;20272;-23
2021/03/23 15:12:46;;;;;;;13.80;7.13;;;19.70;41.00;;;;;;10407334;28;20215;-23
2021/03/23 15:18:08;;;;;;;11.13;6.50;;;19.60;41.40;;;;;;10385267;28;20247;-23
2021/03/23 15:23:34;;;;;;;10.43;6.70;;;19.60;41.20;;;;;;10405198;28;20213;-23
2021/03/23 15:29:00;;;;;;;11.50;7.03;;;19.60;41.60;;;;;;10398653;28;20213;-19
2021/03/23 15:34:21;;;;;;;9.70;6.30;;;19.50;41.50;;;;;;10392485;28;20281;-23
2021/03/23 15:39:43;;;;;;;9.57;6.57;;;19.40;41.80;;;;;;10410074;28;20715;-23
2021/03/23 15:45:13;;;;;;;9.47;7.23;;;19.30;41.60;;;;;;10407719;28;20243;-23
2021/03/23 15:50:34;;;;;;;8.60;6.67;;;19.30;41.60;;;;;;10411099;28;20197;-23
2021/03/23 15:55:56;;;;;;;9.43;6.57;;;19.20;41.60;;;;;;10406890;28;20233;-20
2021/03/23 16:01:19;;;;;;;8.50;6.53;;;19.20;41.70;;;;;;10409870;28;20206;-19
2021/03/23 16:06:42;;;;;;;9.53;6.70;;;19.20;42.40;;;;;;10369856;28;20298;-24
2021/03/23 16:12:07;;;;;;;9.00;6.33;;;19.10;41.80;;;;;;10381271;28;20206;-22
2021/03/23 16:17:31;;;;;;;9.30;6.33;;;19.10;42.10;;;;;;10430937;28;20188;-26
2021/03/23 16:22:55;;;;;;;10.63;6.73;;;19.10;42.10;;;;;;10408429;28;20222;-23
2021/03/23 16:28:20;;;;;;;8.07;5.80;;;19.10;42.00;;;;;;10404157;28;20222;-23
2021/03/23 16:33:42;;;;;;;9.23;6.30;;;19.00;42.00;;;;;;10393490;28;20514;-23
2021/03/23 16:39:05;;;;;;;7.03;5.47;;;18.90;42.20;;;;;;10416899;28;20205;-22
2021/03/23 16:44:28;;;;;;;6.93;5.43;;;18.90;42.80;;;;;;10417147;28;20736;-23
2021/03/23 16:49:51;;;;;;;10.40;5.83;;;18.90;43.00;;;;;;10416707;28;20204;-23
2021/03/23 16:55:28;;;;;;;8.87;6.13;;;18.90;43.00;;;;;;10416373;28;20727;-23
2021/03/23 17:00:50;;;;;;;9.97;6.67;;;18.80;42.90;;;;;;10415716;28;20194;-24
2021/03/23 17:06:21;;;;;;;9.67;6.87;;;18.80;43.30;;;;;;10414624;28;20229;-23
2021/03/23 17:11:44;;;;;;;7.93;6.07;;;18.80;43.30;;;;;;10414442;28;20200;-22
2021/03/23 17:17:07;;;;;;;8.50;6.77;;;18.80;43.30;;;;;;10415239;28;20705;-23
2021/03/23 17:22:30;;;;;;;8.03;6.17;;;18.80;43.30;;;;;;10415144;28;20221;-21
2021/03/23 17:27:51;;;;;;;9.40;7.13;;;18.80;43.10;;;;;;10415104;28;20301;-24
2021/03/23 17:33:18;;;;;;;10.40;7.40;;;18.70;42.90;;;;;;10413238;28;20214;-21
2021/03/23 17:38:41;;;;;;;8.67;7.77;;;18.70;42.90;;;;;;10404220;28;20307;-23
2021/03/23 17:44:03;;;;;;;7.60;6.80;;;18.80;42.90;;;;;;10431400;28;20213;-22
2021/03/23 17:49:24;;;;;;;8.90;7.90;;;18.70;42.70;;;;;;10454678;28;20212;-22
2021/03/23 17:54:47;;;;;;;10.97;7.53;;;18.80;42.70;;;;;;10446383;28;20711;-24
2021/03/23 18:00:10;;;;;;;10.30;7.83;;;18.80;42.60;;;;;;10412903;28;20205;-24
2021/03/23 18:05:34;;;;;;;11.23;8.00;;;18.80;42.50;;;;;;10412076;28;20217;-22
2021/03/23 18:10:57;;;;;;;9.93;7.63;;;18.80;42.40;;;;;;10396829;28;20195;-23
2021/03/23 18:16:19;;;;;;;10.13;7.80;;;18.80;42.50;;;;;;10407130;28;20220;-23
2021/03/23 18:21:41;;;;;;;11.77;8.87;;;18.80;42.30;;;;;;10388851;28;20294;-24
2021/03/23 18:27:04;;;;;;;9.90;7.73;;;18.80;42.40;;;;;;10399565;28;20226;-22
2021/03/23 18:32:27;;;;;;;11.40;8.53;;;18.80;42.40;;;;;;10402837;28;20198;-23
2021/03/23 18:37:49;;;;;;;11.07;8.73;;;18.80;42.10;;;;;;10392787;28;20263;-23
2021/03/23 18:43:13;;;;;;;10.77;9.27;;;18.80;42.00;;;;;;10391392;28;20223;-24
2021/03/23 18:48:34;;;;;;;10.67;9.53;;;18.70;42.00;;;;;;10406830;28;20256;-23
2021/03/23 18:53:56;;;;;;;12.07;9.57;;;18.70;42.00;;;;;;10403389;28;20278;-23
2021/03/23 18:59:18;;;;;;;13.77;10.20;;;18.70;41.90;;;;;;10376765;28;20189;-23
2021/03/23 19:04:40;;;;;;;13.70;10.50;;;18.70;42.00;;;;;;10410845;28;20279;-23
2021/03/23 19:10:02;;;;;;;15.13;11.80;;;18.60;42.10;;;;;;10410563;28;20208;-23
2021/03/23 19:15:28;;;;;;;14.70;12.10;;;18.60;42.10;;;;;;10409219;28;20224;-26
2021/03/23 19:20:52;;;;;;;16.40;12.23;;;18.50;42.00;;;;;;10408781;28;20245;-23
2021/03/23 19:26:13;;;;;;;16.30;12.73;;;18.50;42.20;;;;;;10396057;28;20225;-22
2021/03/23 19:31:36;;;;;;;19.10;14.27;;;18.50;41.90;;;;;;10397783;28;20216;-26
2021/03/23 19:36:57;;;;;;;19.23;14.93;;;18.50;41.70;;;;;;10385501;28;20209;-24
2021/03/23 19:42:19;;;;;;;16.07;12.37;;;18.50;41.70;;;;;;10403597;28;20206;-23
2021/03/23 19:47:41;;;;;;;14.80;11.40;;;18.70;41.70;;;;;;10430209;28;20224;-23
2021/03/23 19:53:05;;;;;;;13.53;10.77;;;19.10;41.10;;;;;;10409300;28;20225;-23
2021/03/23 19:58:27;;;;;;;16.07;12.57;;;19.40;40.60;;;;;;10411017;28;20189;-24
2021/03/23 20:03:50;;;;;;;17.57;12.73;;;19.30;40.40;;;;;;10415187;28;20220;-23
2021/03/23 20:09:12;;;;;;;14.43;11.60;;;19.40;40.20;;;;;;10430793;23;20653;-24
2021/03/23 20:14:34;;;;;;;15.43;11.57;;;19.50;40.10;;;;;;10417018;28;20189;-23
2021/03/23 20:19:57;;;;;;;14.00;12.07;;;19.50;40.10;;;;;;10417072;28;20220;-23
2021/03/23 20:25:20;;;;;;;14.87;11.83;;;19.60;40.10;;;;;;10403133;28;20223;-22
2021/03/23 20:30:44;;;;;;;17.47;11.80;;;19.60;40.10;;;;;;10416007;28;20222;-22
2021/03/23 20:36:08;;;;;;;15.77;12.17;;;19.60;40.10;;;;;;10419738;28;20201;-23
2021/03/23 20:41:32;;;;;;;13.57;11.53;;;19.70;40.10;;;;;;10416002;28;20624;-23
2021/03/23 20:46:53;;;;;;;13.03;10.90;;;19.70;40.10;;;;;;10409293;28;20774;-24
2021/03/23 20:52:16;;;;;;;14.87;10.70;;;19.70;39.90;;;;;;10411356;28;20205;-22
2021/03/23 20:57:38;;;;;;;19.33;11.60;;;19.70;39.80;;;;;;10409521;28;20241;-21
2021/03/23 21:03:00;;;;;;;19.73;11.87;;;19.70;39.80;;;;;;10389306;28;20210;-24
2021/03/23 21:08:24;;;;;;;15.90;10.67;;;19.60;39.90;;;;;;10402728;28;20569;-25
2021/03/23 21:13:48;;;;;;;14.80;11.13;;;19.70;39.70;;;;;;10397732;28;20203;-25
2021/03/23 21:19:12;;;;;;;17.70;11.47;;;19.70;39.60;;;;;;10413407;28;20739;-25
2021/03/23 21:24:35;;;;;;;13.10;10.40;;;19.70;39.60;;;;;;10397484;28;20253;-24
2021/03/23 21:29:57;;;;;;;13.10;10.50;;;19.60;39.80;;;;;;10415369;28;20220;-23
2021/03/23 21:35:21;;;;;;;10.77;8.30;;;19.40;40.20;;;;;;10427909;28;20190;-23
2021/03/23 21:40:44;;;;;;;9.00;7.00;;;19.50;40.30;;;;;;10445718;28;20688;-24
2021/03/23 21:46:06;;;;;;;7.83;6.63;;;20.10;39.80;;;;;;10413217;28;20639;-24
2021/03/23 21:51:28;;;;;;;10.50;7.00;;;20.60;39.20;;;;;;10389690;28;20218;-24
2021/03/23 21:56:50;;;;;;;9.43;6.13;;;20.90;38.30;;;;;;10442844;28;20205;-24
2021/03/23 22:02:13;;;;;;;10.67;6.83;;;21.20;38.00;;;;;;10454140;28;20267;-25
2021/03/23 22:07:35;;;;;;;8.17;6.10;;;21.40;37.80;;;;;;10454025;28;20224;-24
2021/03/23 22:12:58;;;;;;;8.13;6.57;;;21.50;37.60;;;;;;10419671;28;20205;-24
2021/03/23 22:18:20;;;;;;;7.43;6.50;;;21.50;37.50;;;;;;10413130;28;20214;-24
2021/03/23 22:23:42;;;;;;;7.03;6.30;;;21.60;37.40;;;;;;10412916;28;20201;-23
2021/03/23 22:29:04;;;;;;;9.37;6.37;;;21.70;37.30;;;;;;10412175;28;20649;-25
2021/03/23 22:34:28;;;;;;;7.80;6.50;;;21.80;37.00;;;;;;10425625;28;20223;-24
2021/03/23 22:39:50;;;;;;;9.13;7.00;;;21.80;36.80;;;;;;10453362;28;20335;-24
2021/03/23 22:45:15;;;;;;;10.87;7.97;;;21.80;37.10;;;;;;10410436;28;20241;-26
2021/03/23 22:50:40;;;;;;;12.60;8.87;;;21.80;36.50;;;;;;10411438;28;20221;-24
2021/03/23 22:56:02;;;;;;;11.27;9.27;;;21.30;36.80;;;;;;10412800;28;20248;-24
2021/03/23 23:01:24;;;;;;;13.93;9.47;;;20.80;37.60;;;;;;10411688;28;20221;-24
2021/03/23 23:06:46;;;;;;;11.43;9.07;;;20.50;38.20;;;;;;10411775;28;20747;-23
2021/03/23 23:12:09;;;;;;;11.90;9.00;;;20.20;38.60;;;;;;10411017;28;20205;-23
2021/03/23 23:17:31;;;;;;;9.93;8.93;;;20.00;38.80;;;;;;10411776;28;20214;-23
2021/03/23 23:22:53;;;;;;;12.63;8.83;;;19.90;39.10;;;;;;10410767;28;20194;-23
2021/03/23 23:28:16;;;;;;;11.17;9.23;;;19.80;39.10;;;;;;10411128;28;20228;-23
2021/03/23 23:33:38;;;;;;;11.30;8.37;;;19.80;39.10;;;;;;10411323;28;20214;-23
2021/03/23 23:39:00;;;;;;;10.23;8.43;;;19.70;39.10;;;;;;10409897;28;20631;-23
2021/03/23 23:44:23;;;;;;;11.43;9.50;;;19.60;39.20;;;;;;10410329;28;20202;-23
2021/03/23 23:49:46;;;;;;;12.13;9.77;;;19.60;39.20;;;;;;10410543;28;20233;-23
2021/03/23 23:55:11;;;;;;;11.27;8.60;;;19.50;39.20;;;;;;10408629;28;20199;-23
